Time;durP1;ratioP1;P1;durP2;ratioP2;P2;SDS_P1;SDS_P2;PMS_P1;PMS_P2;Temp;Humidity;BMP_temperature;BMP_pressure;BME280_temperature;BME280_humidity;BME280_pressure;Samples;Min_cycle;Max_cycle;Signal;HPM_P1;HPM_P2
2023/10/25 00:04:18;;;;;;;0.32;0.32;;;;;;;12.88;82.79;99793.72;15654747;28;20041;-48
2023/10/25 00:11:54;;;;;;;;;;;;;;;13.06;81.81;99794.50;15689355;28;20045;-46
2023/10/25 00:19:29;;;;;;;0.25;0.25;;;;;;;12.38;84.94;99809.94;15678866;28;19920;-45
2023/10/25 00:27:05;;;;;;;1.45;0.50;;;;;;;12.97;82.24;99804.91;15679669;28;20037;-45
2023/10/25 00:34:39;;;;;;;0.00;0.00;;;;;;;12.74;84.08;99795.97;15671255;28;20064;-44
2023/10/25 00:42:13;;;;;;;0.10;0.10;;;;;;;12.70;83.69;99794.00;15641707;28;20044;-49
2023/10/25 00:49:48;;;;;;;0.10;0.10;;;;;;;12.90;83.19;99788.09;15671123;28;20516;-48
2023/10/25 00:57:23;;;;;;;0.50;0.50;;;;;;;12.76;83.42;99788.44;15681125;28;20095;-43
2023/10/25 01:04:56;;;;;;;0.08;0.08;;;;;;;12.58;83.45;99786.03;15663657;28;20080;-46
2023/10/25 01:12:31;;;;;;;;;;;;;;;12.77;82.16;99778.47;15671654;28;20120;-46
2023/10/25 01:20:04;;;;;;;0.00;0.00;;;;;;;12.35;84.18;99780.81;15656115;28;19921;-48
2023/10/25 01:27:39;;;;;;;0.77;0.55;;;;;;;12.71;82.44;99768.72;15653529;28;20576;-46
2023/10/25 01:35:15;;;;;;;0.00;0.00;;;;;;;12.47;81.64;99773.47;15660829;28;20045;-47
2023/10/25 01:42:54;;;;;;;0.75;0.75;;;;;;;12.05;84.87;99792.72;15665922;28;20044;-45
2023/10/25 01:50:27;;;;;;;0.57;0.43;;;;;;;12.09;84.38;99798.44;15678274;28;20055;-47
2023/10/25 01:58:03;;;;;;;0.57;0.52;;;;;;;12.23;84.89;99808.63;15662291;28;20512;-46
2023/10/25 02:05:37;;;;;;;0.65;0.65;;;;;;;11.70;85.40;99765.97;15663736;28;20128;-46
2023/10/25 02:13:14;;;;;;;6.03;0.95;;;;;;;12.22;83.44;99795.44;15659601;28;20033;-46
2023/10/25 02:20:47;;;;;;;0.52;0.52;;;;;;;12.12;83.62;99811.38;15661066;28;20037;-46
2023/10/25 02:28:21;;;;;;;1.27;1.17;;;;;;;11.87;83.66;99809.88;15673789;28;20121;-48
2023/10/25 02:35:56;;;;;;;1.45;0.50;;;;;;;12.09;83.01;99811.88;15691702;28;20051;-49
2023/10/25 02:43:36;;;;;;;1.90;0.77;;;;;;;11.95;83.86;99822.94;15678348;28;20485;-49
2023/10/25 02:51:15;;;;;;;0.68;0.68;;;;;;;11.93;84.05;99830.41;15657238;28;20041;-48
2023/10/25 02:58:50;;;;;;;0.57;0.57;;;;;;;11.73;82.86;99838.09;15692188;28;20154;-49
2023/10/25 03:06:25;;;;;;;1.58;0.95;;;;;;;11.81;83.78;99844.97;15661734;28;20448;-48
2023/10/25 03:14:00;;;;;;;1.23;1.13;;;;;;;12.04;82.54;99852.16;15656495;28;20047;-50
2023/10/25 03:21:33;;;;;;;0.32;0.32;;;;;;;11.43;83.70;99847.19;15663167;28;20048;-50
2023/10/25 03:29:09;;;;;;;2.05;1.17;;;;;;;11.80;82.61;99862.13;15670596;28;20033;-49
2023/10/25 03:36:51;;;;;;;0.50;0.50;;;;;;;11.71;82.60;99867.91;15655233;28;20151;-48
2023/10/25 03:44:30;;;;;;;2.78;0.47;;;;;;;11.49;83.00;99853.47;15657631;28;20498;-49
2023/10/25 03:52:06;;;;;;;0.25;0.25;;;;;;;11.85;81.39;99862.28;15654263;28;20044;-47
2023/10/25 03:59:41;;;;;;;1.55;0.80;;;;;;;11.38;83.13;99867.78;15690751;28;20040;-48
2023/10/25 04:07:14;;;;;;;4.13;1.33;;;;;;;11.60;81.23;99863.38;15653635;28;20049;-49
2023/10/25 04:14:48;;;;;;;0.98;0.93;;;;;;;11.54;81.78;99863.53;15658844;28;20045;-48
2023/10/25 04:22:22;;;;;;;1.00;0.90;;;;;;;11.49;82.19;99858.84;15656484;28;20075;-47
2023/10/25 04:29:57;;;;;;;0.75;0.75;;;;;;;11.85;80.65;99849.66;15682716;28;20469;-48
2023/10/25 04:37:37;;;;;;;1.52;1.45;;;;;;;11.47;80.66;99851.03;15680868;23;20068;-44
2023/10/25 04:45:12;;;;;;;0.38;0.38;;;;;;;11.31;80.94;99850.94;15658269;28;20291;-45
2023/10/25 04:52:45;;;;;;;0.60;0.60;;;;;;;11.83;78.27;99842.88;15649418;28;20453;-46
2023/10/25 05:00:21;;;;;;;0.52;0.52;;;;;;;11.31;79.39;99835.66;15636943;28;20041;-52
2023/10/25 05:08:03;;;;;;;0.40;0.38;;;;;;;11.45;79.21;99836.19;15621468;28;20041;-49
2023/10/25 05:15:39;;;;;;;0.60;0.60;;;;;;;11.61;77.73;99840.00;15594888;28;20045;-43
2023/10/25 05:23:14;;;;;;;3.38;0.75;;;;;;;11.41;77.44;99843.09;15618537;28;20045;-48
2023/10/25 05:30:50;;;;;;;0.75;0.75;;;;;;;11.29;77.30;99835.09;15619821;28;20430;-43
2023/10/25 05:38:24;;;;;;;1.08;0.95;;;;;;;11.10;77.04;99836.28;15611411;28;20043;-49
2023/10/25 05:46:00;;;;;;;0.20;0.20;;;;;;;11.03;77.09;99841.75;15615883;28;20085;-48
2023/10/25 05:53:34;;;;;;;1.23;0.77;;;;;;;11.02;77.00;99844.69;15650240;28;20113;-47
2023/10/25 06:01:11;;;;;;;1.40;1.30;;;;;;;10.90;77.44;99852.75;15624781;28;20470;-50
2023/10/25 06:08:46;;;;;;;1.80;1.00;;;;;;;10.83;77.90;99860.94;15615880;28;20056;-52
2023/10/25 06:16:21;;;;;;;0.68;0.68;;;;;;;11.04;77.86;99864.88;15603672;28;20053;-51
2023/10/25 06:23:55;;;;;;;1.80;1.17;;;;;;;11.06;77.14;99875.41;15619929;28;20041;-51
2023/10/25 06:31:33;;;;;;;0.63;0.57;;;;;;;10.68;78.65;99880.19;15617188;28;20532;-52
2023/10/25 06:39:07;;;;;;;1.35;1.17;;;;;;;10.63;79.87;99881.91;15605274;28;20045;-51
2023/10/25 06:46:43;;;;;;;1.83;1.27;;;;;;;10.44;81.31;99879.34;15615223;28;20061;-52
2023/10/25 06:54:17;;;;;;;0.82;0.63;;;;;;;10.92;78.87;99882.88;15615516;28;20467;-49
2023/10/25 07:02:07;;;;;;;0.75;0.52;;;;;;;10.46;82.14;99881.78;15624364;28;20109;-49
2023/10/25 07:09:41;;;;;;;1.08;1.00;;;;;;;10.75;81.29;99876.56;15607401;28;20056;-52
2023/10/25 07:17:17;;;;;;;2.45;0.85;;;;;;;11.12;79.94;99877.94;15589993;28;20037;-50
2023/10/25 07:24:50;;;;;;;3.05;1.13;;;;;;;11.07;80.53;99883.22;15614148;28;20072;-47
2023/10/25 07:32:25;;;;;;;1.40;1.27;;;;;;;10.75;83.09;99893.47;15621933;28;20335;-44
2023/10/25 07:39:59;;;;;;;1.63;1.45;;;;;;;11.07;81.96;99893.97;15619009;28;20038;-45
2023/10/25 07:47:41;;;;;;;0.13;0.13;;;;;;;10.92;81.38;99888.25;15613310;28;20056;-51
2023/10/25 07:55:14;;;;;;;1.35;1.20;;;;;;;11.74;79.28;99870.09;15591056;28;20152;-52
2023/10/25 08:02:49;;;;;;;3.15;1.70;;;;;;;11.77;77.73;99859.94;15631735;28;20080;-47
2023/10/25 08:10:24;;;;;;;0.70;0.60;;;;;;;12.10;76.69;99859.25;15638095;28;20052;-48
2023/10/25 08:17:59;;;;;;;0.38;0.38;;;;;;;12.14;75.49;99865.78;15646658;28;20071;-52
2023/10/25 08:25:39;;;;;;;0.30;0.20;;;;;;;11.87;75.58;99860.97;15677449;28;20080;-46
2023/10/25 08:33:13;;;;;;;;;;;;;;;12.40;74.66;99867.84;15652220;28;20087;-50
2023/10/25 08:40:47;;;;;;;0.57;0.57;;;;;;;12.39;74.34;99871.59;15637578;28;19921;-47
2023/10/25 08:48:21;;;;;;;0.10;0.10;;;;;;;11.55;77.95;99874.03;15597747;28;20049;-50
2023/10/25 08:55:56;;;;;;;0.47;0.47;;;;;;;12.06;77.65;99885.78;15593894;28;20049;-44
2023/10/25 09:03:42;;;;;;;0.47;0.47;;;;;;;12.50;75.88;99877.97;15638497;28;20600;-47
2023/10/25 09:11:15;;;;;;;11.77;1.20;;;;;;;12.52;76.18;99879.34;15591705;28;20184;-46
2023/10/25 09:18:54;;;;;;;0.13;0.13;;;;;;;12.68;75.17;99871.50;15624105;28;20394;-50
2023/10/25 09:26:34;;;;;;;0.22;0.22;;;;;;;12.74;76.12;99876.75;15612504;28;20071;-49
2023/10/25 09:34:16;;;;;;;1.02;0.93;;;;;;;12.83;76.21;99869.06;15612678;28;20453;-55
2023/10/25 09:41:52;;;;;;;2.50;0.80;;;;;;;13.33;74.13;99859.28;15613971;28;20133;-49
2023/10/25 09:49:31;;;;;;;2.90;1.75;;;;;;;13.57;73.69;99859.84;15627768;28;20099;-48
2023/10/25 09:57:14;;;;;;;1.02;0.98;;;;;;;13.70;73.56;99849.47;15623670;28;20041;-46
2023/10/25 10:04:57;;;;;;;0.57;0.57;;;;;;;13.52;72.58;99844.41;15620246;28;20534;-49
2023/10/25 10:12:35;;;;;;;0.98;0.63;;;;;;;13.79;72.60;99847.97;15633223;28;20087;-48
2023/10/25 10:20:23;;;;;;;1.45;0.70;;;;;;;15.63;66.07;99832.28;15626451;28;20492;-51
2023/10/25 10:28:03;;;;;;;3.13;1.05;;;;;;;14.68;68.37;99827.72;15608548;28;20049;-47
2023/10/25 10:35:48;;;;;;;0.45;0.45;;;;;;;15.87;63.91;99819.94;15625053;28;20453;-50
2023/10/25 10:43:22;;;;;;;0.10;0.10;;;;;;;16.17;62.29;99816.44;15765563;22;20055;-49
2023/10/25 10:50:57;;;;;;;0.20;0.20;;;;;;;16.07;64.91;99811.03;15738507;28;20612;-50
2023/10/25 10:58:32;;;;;;;1.08;1.00;;;;;;;15.25;66.28;99793.75;15773576;28;20105;-52
2023/10/25 11:06:07;;;;;;;0.10;0.10;;;;;;;16.45;63.05;99789.91;15773899;28;20079;-52
2023/10/25 11:13:40;;;;;;;0.38;0.25;;;;;;;16.01;62.75;99791.28;15757713;28;20055;-54
2023/10/25 11:21:15;;;;;;;0.00;0.00;;;;;;;15.08;64.57;99785.84;15777689;28;20445;-51
2023/10/25 11:28:49;;;;;;;0.50;0.50;;;;;;;14.80;67.56;99777.03;15756214;28;20071;-51
2023/10/25 11:36:24;;;;;;;0.03;0.03;;;;;;;14.78;66.55;99765.69;15751339;28;20064;-52
2023/10/25 11:44:02;;;;;;;3.10;1.45;;;;;;;16.31;62.19;99751.72;15769693;28;20044;-50
2023/10/25 11:51:37;;;;;;;1.55;0.25;;;;;;;17.20;56.90;99733.91;15772744;28;20040;-48
2023/10/25 11:59:13;;;;;;;0.00;0.00;;;;;;;18.32;56.08;99729.59;15751424;28;20044;-52
2023/10/25 12:06:50;;;;;;;3.25;0.68;;;;;;;18.36;51.46;99727.94;15753736;28;20050;-49
2023/10/25 12:14:31;;;;;;;0.00;0.00;;;;;;;17.33;55.58;99713.50;15780362;28;20047;-48
2023/10/25 12:22:07;;;;;;;0.08;0.08;;;;;;;19.25;51.18;99701.09;15762649;28;20060;-46
2023/10/25 12:29:42;;;;;;;0.00;0.00;;;;;;;19.63;47.09;99692.97;15756153;28;20075;-47
2023/10/25 12:37:17;;;;;;;0.00;0.00;;;;;;;17.57;51.46;99686.47;15785867;28;20127;-48
2023/10/25 12:44:50;;;;;;;0.00;0.00;;;;;;;17.11;55.99;99685.94;15746228;28;20051;-50
2023/10/25 12:52:25;;;;;;;1.40;0.75;;;;;;;17.41;52.96;99661.38;15789759;28;20045;-47
2023/10/25 12:59:58;;;;;;;0.10;0.10;;;;;;;16.00;60.21;99667.03;15796253;28;20086;-46
2023/10/25 13:07:34;;;;;;;0.10;0.10;;;;;;;16.40;60.22;99668.84;15797987;28;20056;-48
2023/10/25 13:15:08;;;;;;;0.10;0.10;;;;;;;16.95;58.01;99656.22;15780702;28;20544;-48
2023/10/25 13:22:43;;;;;;;0.17;0.17;;;;;;;17.46;55.13;99641.53;15784561;28;20051;-48
2023/10/25 13:30:16;;;;;;;0.28;0.13;;;;;;;17.00;53.98;99644.53;15788411;28;20478;-48
2023/10/25 13:37:50;;;;;;;0.00;0.00;;;;;;;16.91;55.58;99632.66;15783488;28;20080;-49
2023/10/25 13:45:24;;;;;;;0.00;0.00;;;;;;;16.82;55.25;99622.38;15787868;28;20032;-47
2023/10/25 13:52:58;;;;;;;0.00;0.00;;;;;;;16.23;56.51;99615.03;15786089;28;20071;-48
2023/10/25 14:00:31;;;;;;;0.43;0.30;;;;;;;15.88;57.89;99591.53;15766170;28;20044;-52
2023/10/25 14:08:08;;;;;;;0.10;0.10;;;;;;;15.95;57.83;99572.31;15783137;28;20135;-48
2023/10/25 14:15:43;;;;;;;0.20;0.17;;;;;;;15.16;61.28;99541.25;15776955;28;20497;-52
2023/10/25 14:23:18;;;;;;;0.00;0.00;;;;;;;15.47;60.34;99523.13;15774888;28;20044;-52
2023/10/25 14:30:51;;;;;;;0.10;0.10;;;;;;;14.94;62.81;99536.91;15773145;28;20044;-51
2023/10/25 14:38:25;;;;;;;;;;;;;;;14.99;63.33;99528.00;15789669;28;20047;-50
2023/10/25 14:45:59;;;;;;;0.00;0.00;;;;;;;14.78;65.21;99536.06;15756048;28;20006;-50
2023/10/25 14:53:34;;;;;;;0.80;0.73;;;;;;;14.46;66.88;99528.13;15790973;28;20048;-47
2023/10/25 15:01:07;;;;;;;0.95;0.90;;;;;;;13.94;69.09;99511.97;15771550;28;20071;-51
2023/10/25 15:08:42;;;;;;;0.47;0.47;;;;;;;14.72;65.92;99515.50;15765411;28;20058;-51
2023/10/25 15:16:15;;;;;;;0.55;0.55;;;;;;;14.63;66.07;99510.91;15785082;28;20050;-47
2023/10/25 15:23:50;;;;;;;0.38;0.20;;;;;;;14.49;66.54;99506.00;15773094;28;20044;-52
2023/10/25 15:31:23;;;;;;;0.30;0.30;;;;;;;13.69;69.61;99502.69;15774174;28;20112;-47
2023/10/25 15:38:58;;;;;;;0.55;0.55;;;;;;;13.87;69.22;99487.94;15755685;28;20479;-47
2023/10/25 15:46:32;;;;;;;2.05;0.60;;;;;;;13.93;68.31;99480.69;15752045;28;20194;-49
2023/10/25 15:54:06;;;;;;;0.10;0.10;;;;;;;13.23;69.92;99471.91;15771559;28;20488;-48
2023/10/25 16:01:40;;;;;;;0.65;0.65;;;;;;;12.13;74.97;99455.28;15788516;28;20059;-48
2023/10/25 16:09:17;;;;;;;0.32;0.32;;;;;;;12.70;72.55;99465.53;15780417;28;20109;-47
2023/10/25 16:16:50;;;;;;;1.27;1.08;;;;;;;12.51;73.45;99473.97;15749008;28;20056;-48
2023/10/25 16:24:26;;;;;;;0.08;0.08;;;;;;;12.88;71.48;99462.47;15772810;28;20044;-49
2023/10/25 16:31:59;;;;;;;0.38;0.38;;;;;;;12.94;71.40;99466.00;15754206;28;20056;-48
2023/10/25 16:39:34;;;;;;;0.00;0.00;;;;;;;12.47;73.03;99463.97;15774891;28;20047;-49
2023/10/25 16:47:08;;;;;;;0.30;0.30;;;;;;;12.70;72.15;99455.59;15769804;28;20047;-52
2023/10/25 16:54:42;;;;;;;0.00;0.00;;;;;;;12.05;74.72;99447.66;15767277;28;20154;-50
2023/10/25 17:02:16;;;;;;;0.28;0.28;;;;;;;11.68;75.82;99445.53;15783070;28;20114;-53
2023/10/25 17:09:51;;;;;;;0.63;0.63;;;;;;;11.92;75.30;99441.56;15755752;28;20389;-55
2023/10/25 17:17:24;;;;;;;1.05;0.85;;;;;;;12.48;72.67;99446.75;15776335;28;20517;-51
2023/10/25 17:24:59;;;;;;;1.20;0.95;;;;;;;12.60;71.89;99450.09;15777924;28;20063;-51
2023/10/25 17:32:33;;;;;;;1.35;1.23;;;;;;;12.41;72.38;99438.09;15759851;28;20056;-51
2023/10/25 17:40:10;;;;;;;0.47;0.47;;;;;;;11.74;75.03;99434.59;15789931;28;20127;-49
2023/10/25 17:47:50;;;;;;;0.90;0.90;;;;;;;11.50;77.08;99427.84;15779334;28;20135;-51
2023/10/25 17:55:25;;;;;;;1.20;0.60;;;;;;;10.82;79.30;99424.44;15789613;28;20119;-51
2023/10/25 18:02:58;;;;;;;0.38;0.38;;;;;;;10.96;79.22;99406.13;15763860;28;20544;-50
2023/10/25 18:10:32;;;;;;;;;;;;;;;10.81;80.26;99411.25;15759846;28;20032;-50
2023/10/25 18:18:06;;;;;;;0.43;0.43;;;;;;;10.65;80.65;99407.50;15771100;28;19926;-50
2023/10/25 18:25:41;;;;;;;0.30;0.17;;;;;;;10.97;79.07;99395.13;15735701;28;20036;-50
2023/10/25 18:33:18;;;;;;;0.75;0.57;;;;;;;11.03;79.23;99392.53;15764168;28;20071;-51
2023/10/25 18:40:57;;;;;;;0.45;0.45;;;;;;;11.18;78.86;99385.50;15754162;28;20049;-51
2023/10/25 18:48:31;;;;;;;0.50;0.40;;;;;;;10.55;80.37;99373.28;15765111;28;20578;-51
2023/10/25 18:56:07;;;;;;;0.90;0.90;;;;;;;10.40;81.07;99364.97;15758506;28;20043;-49
2023/10/25 19:03:40;;;;;;;0.00;0.00;;;;;;;10.67;80.28;99344.47;15743918;28;20057;-52
2023/10/25 19:11:17;;;;;;;0.10;0.10;;;;;;;11.01;78.62;99355.19;15732288;28;20033;-52
2023/10/25 19:18:50;;;;;;;1.25;1.00;;;;;;;10.84;79.24;99349.03;15773623;28;20538;-51
2023/10/25 19:26:24;;;;;;;0.15;0.15;;;;;;;11.02;78.20;99340.69;15767518;28;20036;-48
2023/10/25 19:34:00;;;;;;;0.50;0.50;;;;;;;10.80;78.34;99329.91;15765372;28;20066;-50
2023/10/25 19:41:41;;;;;;;0.43;0.30;;;;;;;11.24;76.73;99321.94;15760622;28;20049;-48
2023/10/25 19:49:16;;;;;;;0.30;0.30;;;;;;;10.85;78.21;99319.25;15754003;28;20425;-49
2023/10/25 19:56:53;;;;;;;0.10;0.10;;;;;;;11.15;77.48;99307.31;15747389;28;20047;-49
2023/10/25 20:04:29;;;;;;;0.57;0.57;;;;;;;10.85;77.79;99297.78;15763148;28;20098;-48
2023/10/25 20:12:11;;;;;;;0.38;0.28;;;;;;;10.88;77.62;99296.47;15804659;28;20469;-49
2023/10/25 20:19:44;;;;;;;0.10;0.10;;;;;;;11.03;77.24;99282.44;15777573;28;20056;-51
2023/10/25 20:27:20;;;;;;;0.85;0.63;;;;;;;10.89;77.24;99273.94;15774260;28;20067;-49
2023/10/25 20:34:53;;;;;;;1.35;0.82;;;;;;;10.74;78.01;99266.50;15776408;28;20040;-49
2023/10/25 20:42:29;;;;;;;;;;;;;;;10.62;78.54;99247.78;15771393;28;20055;-48
2023/10/25 20:50:02;;;;;;;0.10;0.10;;;;;;;10.84;77.77;99245.16;15797818;28;19974;-51
2023/10/25 20:57:42;;;;;;;1.27;0.93;;;;;;;10.71;78.55;99226.72;15780612;28;20131;-48
2023/10/25 21:05:18;;;;;;;0.15;0.15;;;;;;;10.63;79.31;99217.25;15784600;28;20509;-48
2023/10/25 21:12:56;;;;;;;0.63;0.63;;;;;;;10.68;79.47;99208.44;15780555;28;20040;-47
2023/10/25 21:20:29;;;;;;;0.63;0.63;;;;;;;10.64;79.44;99201.97;15742047;28;20079;-48
2023/10/25 21:28:03;;;;;;;0.50;0.50;;;;;;;10.50;79.84;99193.44;15789696;28;20044;-49
2023/10/25 21:35:36;;;;;;;2.55;0.52;;;;;;;10.37;81.08;99183.88;15793723;28;20036;-48
2023/10/25 21:43:11;;;;;;;0.28;0.28;;;;;;;10.70;79.97;99174.13;15797999;28;20113;-48
2023/10/25 21:50:56;;;;;;;0.85;0.55;;;;;;;10.67;80.00;99153.13;15802659;28;20040;-47
2023/10/25 21:58:32;;;;;;;1.58;0.63;;;;;;;10.55;80.72;99144.41;15722285;28;20397;-48
2023/10/25 22:06:07;;;;;;;0.00;0.00;;;;;;;10.16;82.32;99136.34;15788012;28;20036;-48
2023/10/25 22:13:41;;;;;;;0.40;0.40;;;;;;;10.46;81.07;99122.56;15749015;28;20048;-50
2023/10/25 22:21:17;;;;;;;0.00;0.00;;;;;;;10.52;80.82;99110.03;15780113;28;20041;-49
2023/10/25 22:28:51;;;;;;;0.00;0.00;;;;;;;10.38;80.99;99107.72;15800399;28;20098;-47
2023/10/25 22:36:24;;;;;;;1.02;0.93;;;;;;;10.12;81.95;99097.72;15788457;28;20040;-49
2023/10/25 22:43:59;;;;;;;0.63;0.63;;;;;;;10.42;80.59;99095.44;15719810;22;20067;-48
2023/10/25 22:51:33;;;;;;;1.00;0.90;;;;;;;10.51;80.63;99085.09;15685794;28;20501;-47
2023/10/25 22:59:08;;;;;;;0.43;0.43;;;;;;;10.37;81.55;99075.78;15675388;28;20244;-50
2023/10/25 23:06:42;;;;;;;1.25;0.98;;;;;;;10.48;80.68;99069.47;15674593;28;20041;-52
2023/10/25 23:14:16;;;;;;;0.40;0.38;;;;;;;10.38;81.49;99066.69;15684439;28;20037;-46
2023/10/25 23:21:51;;;;;;;0.35;0.35;;;;;;;10.48;82.00;99048.81;15690268;28;20056;-46
2023/10/25 23:29:28;;;;;;;0.10;0.10;;;;;;;10.22;82.56;99031.59;15674440;28;20048;-45
2023/10/25 23:37:01;;;;;;;0.10;0.10;;;;;;;10.00;85.04;99030.78;15683034;28;20055;-50
2023/10/25 23:44:36;;;;;;;0.40;0.40;;;;;;;9.87;85.32;99029.25;15674830;28;20079;-48
2023/10/25 23:52:09;;;;;;;0.30;0.20;;;;;;;10.01;84.61;99010.97;15682291;28;20049;-45
2023/10/25 23:59:44;;;;;;;0.45;0.45;;;;;;;10.06;84.86;99007.53;15666602;28;20049;-49
